Time;durP1;ratioP1;P1;durP2;ratioP2;P2;SDS_P1;SDS_P2;PMS_P1;PMS_P2;Temp;Humidity;BMP_temperature;BMP_pressure;BME280_temperature;BME280_humidity;BME280_pressure;Samples;Min_cycle;Max_cycle;Signal;HPM_P1;HPM_P2
2021/12/17 00:05:42;;;;;;;23.13;19.75;;;23.00;77.50;;;;;;6209261;28;82769;-61
2021/12/17 00:08:51;;;;;;;22.52;20.08;;;23.00;77.60;;;;;;6209571;28;82900;-62
2021/12/17 00:11:53;;;;;;;23.17;20.48;;;23.00;77.50;;;;;;6210744;28;84081;-61
2021/12/17 00:14:58;;;;;;;23.05;20.55;;;23.00;77.40;;;;;;6221075;28;83528;-61
2021/12/17 00:18:07;;;;;;;24.00;19.90;;;23.00;77.40;;;;;;6201507;28;83437;-61
2021/12/17 00:48:21;;;;;;;22.65;19.92;;;22.90;77.90;;;;;;6204125;28;82771;-62
2021/12/17 00:54:44;;;;;;;22.48;20.02;;;22.80;77.80;;;;;;6184737;28;83129;-61
2021/12/17 00:57:46;;;;;;;22.10;19.70;;;22.70;77.80;;;;;;6210216;28;83983;-62
2021/12/17 01:00:49;;;;;;;21.90;19.50;;;22.70;77.90;;;;;;6207752;28;85314;-61
2021/12/17 01:03:54;;;;;;;23.05;20.50;;;22.70;77.90;;;;;;6217812;28;84455;-61
2021/12/17 01:06:56;;;;;;;22.02;19.63;;;22.70;77.90;;;;;;6197830;28;84332;-62
2021/12/17 01:10:00;;;;;;;22.08;19.67;;;22.70;77.90;;;;;;6202885;28;84374;-61
2021/12/17 01:13:02;;;;;;;22.52;20.02;;;22.70;77.90;;;;;;6208261;28;84028;-62
2021/12/17 01:16:05;;;;;;;21.73;19.42;;;22.70;77.90;;;;;;6200419;28;84107;-61
2021/12/17 01:19:17;;;;;;;22.02;19.60;;;22.70;77.80;;;;;;6205604;28;84356;-61
2021/12/17 01:22:44;;;;;;;23.13;20.23;;;22.70;77.70;;;;;;6195086;28;83760;-61
2021/12/17 01:35:20;;;;;;;22.38;19.98;;;22.70;77.70;;;;;;6196868;28;84479;-61
2021/12/17 01:35:56;;;;;;;22.33;19.92;;;22.70;77.40;;;;;;6203609;28;82741;-61
2021/12/17 01:42:18;;;;;;;22.23;19.85;;;22.70;77.20;;;;;;6191160;28;84278;-61
2021/12/17 01:45:26;;;;;;;22.38;20.08;;;22.70;77.20;;;;;;6198397;28;84000;-61
2021/12/17 01:48:37;;;;;;;22.50;20.20;;;22.70;77.20;;;;;;6206949;28;84327;-61
2021/12/17 02:01:44;;;;;;;22.27;20.00;;;22.70;77.30;;;;;;6211959;28;83205;-61
2021/12/17 02:04:46;;;;;;;23.75;20.88;;;22.60;77.20;;;;;;6210496;28;84959;-62
2021/12/17 02:07:53;;;;;;;22.15;19.85;;;22.60;77.30;;;;;;6209125;28;84116;-61
2021/12/17 02:11:46;;;;;;;22.55;20.20;;;22.60;77.30;;;;;;6210328;28;82890;-62
2021/12/17 02:21:54;;;;;;;22.80;20.40;;;22.60;77.40;;;;;;6136888;28;83120;-62
2021/12/17 02:31:32;;;;;;;22.58;20.27;;;22.50;77.40;;;;;;6209771;28;84038;-61
2021/12/17 02:34:54;;;;;;;22.98;20.58;;;22.50;77.40;;;;;;6211318;28;83984;-61
2021/12/17 02:37:58;;;;;;;22.08;19.77;;;22.50;77.40;;;;;;6204271;28;83927;-61
2021/12/17 02:47:45;;;;;;;22.20;19.90;;;22.50;78.30;;;;;;6205451;28;82700;-61
2021/12/17 02:50:49;;;;;;;22.33;20.02;;;22.50;77.20;;;;;;6206104;28;83286;-61
2021/12/17 02:53:55;;;;;;;21.27;19.08;;;22.50;77.20;;;;;;6209973;28;84081;-61
2021/12/17 02:56:57;;;;;;;21.75;19.55;;;22.50;77.10;;;;;;6198829;28;84592;-61
2021/12/17 03:00:00;;;;;;;22.48;20.15;;;22.50;77.10;;;;;;6203715;28;83379;-61
2021/12/17 03:03:05;;;;;;;21.20;19.08;;;22.50;77.00;;;;;;6210745;28;83079;-61
2021/12/17 03:06:08;;;;;;;21.77;19.33;;;22.50;77.00;;;;;;6211148;28;84204;-61
2021/12/17 03:09:12;;;;;;;21.00;18.80;;;22.50;77.00;;;;;;6229733;28;85574;-61
2021/12/17 03:12:19;;;;;;;22.20;19.90;;;22.50;76.90;;;;;;6210182;28;82950;-61
2021/12/17 03:15:31;;;;;;;21.17;19.08;;;22.50;76.90;;;;;;6204823;28;84717;-62
2021/12/17 03:25:12;;;;;;;20.98;18.88;;;22.50;76.90;;;;;;6197719;28;82778;-61
2021/12/17 03:28:14;;;;;;;20.52;18.52;;;22.50;76.90;;;;;;6208979;28;84029;-61
2021/12/17 03:31:18;;;;;;;21.25;19.15;;;22.40;76.90;;;;;;6206885;28;83381;-61
2021/12/17 03:34:21;;;;;;;20.65;18.52;;;22.40;76.90;;;;;;6192237;28;84368;-62
2021/12/17 03:37:23;;;;;;;20.23;18.15;;;22.40;76.90;;;;;;6199635;28;84043;-61
2021/12/17 03:40:28;;;;;;;20.13;18.13;;;22.40;77.00;;;;;;6200678;28;83608;-62
2021/12/17 03:43:32;;;;;;;20.27;18.25;;;22.40;77.00;;;;;;6222888;28;84044;-61
2021/12/17 03:46:34;;;;;;;20.25;18.15;;;22.30;76.90;;;;;;6197419;28;84028;-61
2021/12/17 03:49:37;;;;;;;19.02;17.13;;;22.30;77.00;;;;;;6210547;28;84309;-62
2021/12/17 03:52:39;;;;;;;19.42;17.45;;;22.30;77.00;;;;;;6199821;28;82869;-62
2021/12/17 03:55:43;;;;;;;19.60;17.60;;;22.30;77.00;;;;;;6186799;28;84118;-62
2021/12/17 03:58:45;;;;;;;20.25;18.25;;;22.30;77.00;;;;;;6205341;28;84106;-61
2021/12/17 04:01:47;;;;;;;19.70;17.70;;;22.30;77.00;;;;;;6203450;28;83285;-61
2021/12/17 04:04:49;;;;;;;19.40;17.40;;;22.30;77.10;;;;;;6202522;28;84116;-62
2021/12/17 04:07:51;;;;;;;20.10;18.10;;;22.30;77.10;;;;;;6220810;28;84068;-62
2021/12/17 04:11:03;;;;;;;19.42;17.42;;;22.30;77.10;;;;;;6207435;28;84973;-61
2021/12/17 04:14:05;;;;;;;19.25;17.33;;;22.20;77.00;;;;;;6197961;28;84060;-62
2021/12/17 04:17:07;;;;;;;19.73;17.63;;;22.20;77.10;;;;;;6208802;28;84027;-61
2021/12/17 04:20:09;;;;;;;19.73;17.73;;;22.30;76.90;;;;;;6210154;28;82919;-62
2021/12/17 04:23:11;;;;;;;18.55;16.75;;;22.30;76.90;;;;;;6194983;28;83994;-61
2021/12/17 04:26:16;;;;;;;19.58;17.63;;;22.30;76.90;;;;;;6194819;28;84029;-62
2021/12/17 04:29:20;;;;;;;19.23;17.33;;;22.30;76.90;;;;;;6198098;28;84025;-62
2021/12/17 04:32:22;;;;;;;19.15;17.23;;;22.30;76.90;;;;;;6206874;28;83409;-61
2021/12/17 04:35:24;;;;;;;19.15;17.25;;;22.30;76.90;;;;;;6208985;28;83793;-61
2021/12/17 04:38:28;;;;;;;19.02;17.13;;;22.30;76.90;;;;;;6184285;28;83590;-61
2021/12/17 04:41:43;;;;;;;18.55;16.75;;;22.30;76.70;;;;;;6207293;28;85021;-61
2021/12/17 04:44:52;;;;;;;18.80;16.88;;;22.20;76.60;;;;;;6206769;28;84476;-61
2021/12/17 04:57:57;;;;;;;18.45;16.58;;;22.30;76.50;;;;;;6198142;28;82711;-62
2021/12/17 05:01:01;;;;;;;18.23;16.42;;;22.40;76.50;;;;;;6185695;28;84233;-61
2021/12/17 05:04:03;;;;;;;18.88;16.98;;;22.40;76.50;;;;;;6208860;28;83083;-62
2021/12/17 05:07:07;;;;;;;18.60;16.70;;;22.40;76.50;;;;;;6207480;28;84078;-62
2021/12/17 05:10:18;;;;;;;18.83;16.92;;;22.40;76.40;;;;;;6208568;28;84506;-62
2021/12/17 05:20:23;;;;;;;17.88;16.15;;;22.40;76.40;;;;;;6205667;28;84150;-62
2021/12/17 05:23:30;;;;;;;18.10;16.30;;;22.40;76.40;;;;;;6200145;28;83938;-62
2021/12/17 05:26:32;;;;;;;16.90;15.20;;;22.40;76.40;;;;;;6212169;28;84551;-62
2021/12/17 05:29:35;;;;;;;17.75;16.05;;;22.40;76.30;;;;;;6195893;28;83155;-61
2021/12/17 05:32:37;;;;;;;18.27;16.48;;;22.40;76.40;;;;;;6218028;28;83957;-62
2021/12/17 05:35:39;;;;;;;18.27;16.40;;;22.40;76.30;;;;;;6204261;28;83269;-62
2021/12/17 05:38:41;;;;;;;17.50;15.70;;;22.40;76.40;;;;;;6213656;28;84274;-61
2021/12/17 05:41:45;;;;;;;17.58;15.80;;;22.40;76.40;;;;;;6199522;28;84053;-62
2021/12/17 05:44:52;;;;;;;17.40;15.73;;;22.40;76.80;;;;;;6204465;28;84696;-62
2021/12/17 05:47:54;;;;;;;17.00;15.30;;;22.40;76.90;;;;;;6199450;28;84216;-62
2021/12/17 05:50:58;;;;;;;17.05;15.35;;;22.40;77.00;;;;;;6205470;28;84848;-62
2021/12/17 05:54:00;;;;;;;16.83;15.23;;;22.40;77.10;;;;;;6195571;28;83347;-62
2021/12/17 06:00:43;;;;;;;16.15;14.55;;;22.40;75.70;;;;;;6202282;28;83518;-62
2021/12/17 06:03:45;;;;;;;15.77;14.18;;;22.40;75.80;;;;;;6197856;28;82853;-62
2021/12/17 06:06:49;;;;;;;16.33;14.70;;;22.40;75.80;;;;;;6210564;28;83235;-62
2021/12/17 06:09:52;;;;;;;16.02;14.48;;;22.40;75.80;;;;;;6193803;28;84076;-62
2021/12/17 06:12:54;;;;;;;16.02;14.43;;;22.50;75.90;;;;;;6210563;28;84348;-62
2021/12/17 06:15:58;;;;;;;16.13;14.43;;;22.50;75.90;;;;;;6208684;28;84826;-62
2021/12/17 06:19:01;;;;;;;14.95;13.55;;;22.50;75.80;;;;;;6212202;28;83908;-62
2021/12/17 06:22:03;;;;;;;15.50;14.00;;;22.50;75.80;;;;;;6198704;28;84038;-62
2021/12/17 06:25:08;;;;;;;14.68;13.27;;;22.50;75.80;;;;;;6209229;28;84126;-62
2021/12/17 06:28:10;;;;;;;14.60;13.20;;;22.50;75.80;;;;;;6204718;28;83861;-62
2021/12/17 06:31:13;;;;;;;14.77;13.38;;;22.50;75.70;;;;;;6205037;28;84044;-62
2021/12/17 06:34:15;;;;;;;15.15;13.65;;;22.50;75.70;;;;;;6210688;28;84068;-62
2021/12/17 06:37:18;;;;;;;15.35;13.85;;;22.50;75.70;;;;;;6195149;28;83455;-62
2021/12/17 06:40:20;;;;;;;14.25;12.88;;;22.50;75.70;;;;;;6197768;28;84209;-62
2021/12/17 06:43:27;;;;;;;13.82;12.52;;;22.50;75.80;;;;;;6207397;28;82901;-62
2021/12/17 06:46:37;;;;;;;14.50;13.10;;;22.50;75.80;;;;;;6211185;28;84780;-62
2021/12/17 06:49:51;;;;;;;14.60;13.20;;;22.50;75.70;;;;;;6209792;28;82871;-62
2021/12/17 06:59:48;;;;;;;13.50;12.20;;;22.60;75.70;;;;;;6207606;28;83521;-62
2021/12/17 07:06:19;;;;;;;12.13;10.93;;;22.60;75.80;;;;;;6209808;28;82762;-62
2021/12/17 07:10:03;;;;;;;13.13;11.82;;;22.60;75.70;;;;;;6209224;28;82872;-62
2021/12/17 07:23:16;;;;;;;12.68;11.02;;;22.70;75.70;;;;;;6209674;28;86040;-62
2021/12/17 07:33:13;;;;;;;12.40;11.20;;;22.80;75.60;;;;;;6152428;28;83530;-61
2021/12/17 07:36:18;;;;;;;11.88;10.68;;;22.80;75.60;;;;;;6217909;28;84135;-61
2021/12/17 07:39:19;;;;;;;11.38;10.27;;;22.80;75.50;;;;;;6195242;28;84276;-63
2021/12/17 07:42:22;;;;;;;11.40;10.30;;;22.80;75.50;;;;;;6208646;28;83580;-63
2021/12/17 07:45:24;;;;;;;11.48;10.38;;;22.80;75.50;;;;;;6205245;28;84016;-63
2021/12/17 07:48:27;;;;;;;10.73;9.73;;;22.90;75.70;;;;;;6196964;28;84003;-63
2021/12/17 07:51:30;;;;;;;11.82;10.73;;;22.90;75.50;;;;;;6197544;28;83943;-61
2021/12/17 07:54:32;;;;;;;11.00;9.90;;;22.90;75.60;;;;;;6203864;28;84047;-61
2021/12/17 07:57:34;;;;;;;10.82;9.82;;;22.90;75.50;;;;;;6205224;28;84080;-60
2021/12/17 08:00:36;;;;;;;10.45;9.45;;;22.90;75.60;;;;;;6204972;28;84008;-61
2021/12/17 08:03:39;;;;;;;10.57;9.55;;;22.90;75.60;;;;;;6209956;28;82927;-60
2021/12/17 08:06:42;;;;;;;10.48;9.48;;;22.90;75.50;;;;;;6200645;28;84356;-61
2021/12/17 08:09:45;;;;;;;10.93;9.90;;;22.90;75.50;;;;;;6209086;28;84213;-61
2021/12/17 08:12:47;;;;;;;10.07;9.18;;;22.90;75.50;;;;;;6188406;28;83038;-61
2021/12/17 08:16:04;;;;;;;10.40;9.32;;;22.90;75.50;;;;;;6208726;28;84323;-60
2021/12/17 08:23:19;;;;;;;9.80;8.82;;;22.90;75.50;;;;;;6185188;28;84259;-61
2021/12/17 08:26:09;;;;;;;9.50;8.60;;;22.90;75.50;;;;;;6211056;28;82289;-61
2021/12/17 08:29:27;;;;;;;10.45;9.35;;;22.90;75.40;;;;;;6199463;28;83372;-60
2021/12/17 08:32:29;;;;;;;9.45;8.55;;;23.00;75.50;;;;;;6206459;28;83937;-61
2021/12/17 08:35:31;;;;;;;9.02;8.13;;;22.90;75.40;;;;;;6199918;28;84087;-60
2021/12/17 08:38:34;;;;;;;9.77;8.88;;;23.00;75.40;;;;;;6205782;28;84007;-61
2021/12/17 08:41:38;;;;;;;9.18;8.15;;;23.00;75.40;;;;;;6206863;28;85389;-61
2021/12/17 08:44:40;;;;;;;9.40;8.50;;;23.00;75.40;;;;;;6190905;28;82669;-60
2021/12/17 08:47:43;;;;;;;9.43;8.52;;;23.00;75.40;;;;;;6205834;28;82870;-61
2021/12/17 08:50:46;;;;;;;8.77;7.97;;;23.00;75.40;;;;;;6209164;28;84157;-61
2021/12/17 08:53:49;;;;;;;9.07;8.18;;;23.00;75.40;;;;;;6192902;28;84982;-61
2021/12/17 08:57:10;;;;;;;8.95;8.05;;;23.00;75.30;;;;;;6205657;28;84043;-60
2021/12/17 09:00:14;;;;;;;8.55;7.75;;;23.00;75.40;;;;;;6204039;28;84068;-61
2021/12/17 09:03:16;;;;;;;10.25;8.00;;;23.10;75.30;;;;;;6208834;28;82982;-61
2021/12/17 09:06:20;;;;;;;8.30;7.50;;;23.10;75.00;;;;;;6206333;28;84010;-61
2021/12/17 09:09:24;;;;;;;8.90;7.55;;;23.10;75.20;;;;;;6196749;28;83945;-60
2021/12/17 09:12:26;;;;;;;8.18;7.35;;;23.10;75.20;;;;;;6202725;28;84525;-61
2021/12/17 09:15:29;;;;;;;8.90;8.02;;;23.10;75.20;;;;;;6208155;28;83789;-61
2021/12/17 09:18:31;;;;;;;8.23;7.32;;;23.10;75.30;;;;;;6196654;28;82948;-61
2021/12/17 09:21:33;;;;;;;9.23;8.20;;;23.10;75.30;;;;;;6204997;28;83983;-60
2021/12/17 09:24:37;;;;;;;8.40;7.55;;;23.10;75.30;;;;;;6185447;28;83941;-61
2021/12/17 09:27:39;;;;;;;8.27;7.00;;;23.10;75.40;;;;;;6209750;28;81968;-61
2021/12/17 09:30:41;;;;;;;8.05;7.22;;;23.10;75.40;;;;;;6195610;28;84021;-60
2021/12/17 09:33:45;;;;;;;7.68;6.93;;;23.10;75.40;;;;;;6198665;28;84002;-61
2021/12/17 09:36:47;;;;;;;8.63;7.22;;;23.10;75.40;;;;;;6208039;28;83972;-61
2021/12/17 09:39:51;;;;;;;9.57;7.53;;;23.10;75.40;;;;;;6198835;28;84384;-61
2021/12/17 09:42:53;;;;;;;7.85;6.80;;;23.10;75.40;;;;;;6207435;28;84358;-61
2021/12/17 09:45:55;;;;;;;7.88;7.07;;;23.10;75.40;;;;;;6191621;28;83239;-61
2021/12/17 09:48:58;;;;;;;7.63;6.82;;;23.10;75.50;;;;;;6199492;28;83280;-61
2021/12/17 09:52:00;;;;;;;7.28;6.57;;;23.10;75.50;;;;;;6195910;28;84112;-61
2021/12/17 09:55:06;;;;;;;7.60;6.60;;;23.10;75.50;;;;;;6208689;28;84985;-60
2021/12/17 09:58:08;;;;;;;7.43;6.50;;;23.10;75.40;;;;;;6209792;28;84298;-61
2021/12/17 10:01:10;;;;;;;7.00;6.32;;;23.10;75.40;;;;;;6194361;28;84014;-61
2021/12/17 10:04:14;;;;;;;7.00;6.30;;;23.10;75.40;;;;;;6198439;28;82228;-61
2021/12/17 10:07:22;;;;;;;7.40;6.70;;;23.10;75.40;;;;;;6200362;28;84074;-61
2021/12/17 10:10:35;;;;;;;7.50;6.40;;;23.20;75.50;;;;;;6202765;28;82950;-60
2021/12/17 10:13:37;;;;;;;7.00;6.30;;;23.10;75.40;;;;;;6211792;28;82917;-61
2021/12/17 10:16:40;;;;;;;7.05;6.35;;;23.10;75.40;;;;;;6213067;28;82588;-61
2021/12/17 10:19:47;;;;;;;6.93;6.22;;;23.20;75.40;;;;;;6213415;28;84127;-61
2021/12/17 10:22:57;;;;;;;6.78;5.88;;;23.20;75.40;;;;;;6212383;28;84374;-61
2021/12/17 10:26:01;;;;;;;6.60;5.80;;;23.20;75.40;;;;;;6211735;28;85075;-61
2021/12/17 10:29:05;;;;;;;6.40;5.80;;;23.10;75.30;;;;;;6201804;28;84196;-60
2021/12/17 10:32:09;;;;;;;6.70;6.00;;;23.20;75.40;;;;;;6212529;28;84344;-61
2021/12/17 10:35:13;;;;;;;6.20;5.60;;;23.20;75.40;;;;;;6210335;28;84090;-61
2021/12/17 10:38:17;;;;;;;6.47;5.88;;;23.20;75.40;;;;;;6212958;28;84079;-60
2021/12/17 10:41:27;;;;;;;6.13;5.43;;;23.20;75.40;;;;;;6197431;28;84037;-61
2021/12/17 10:44:29;;;;;;;5.85;5.35;;;23.20;75.40;;;;;;6203530;28;84072;-61
2021/12/17 10:47:34;;;;;;;6.80;5.80;;;23.10;75.40;;;;;;6209900;28;83325;-60
2021/12/17 10:50:36;;;;;;;6.40;5.80;;;23.20;75.40;;;;;;6206570;28;84167;-61
2021/12/17 10:53:38;;;;;;;5.97;5.45;;;23.20;75.40;;;;;;6204008;28;84538;-61
2021/12/17 10:56:43;;;;;;;7.00;5.55;;;23.20;75.40;;;;;;6198606;28;84955;-61
2021/12/17 10:59:47;;;;;;;5.78;5.20;;;23.20;75.40;;;;;;6208962;28;84017;-61
2021/12/17 11:02:50;;;;;;;5.57;5.07;;;23.20;75.40;;;;;;6200976;28;84084;-61
2021/12/17 11:05:52;;;;;;;5.53;5.03;;;23.20;75.40;;;;;;6199316;28;83916;-61
2021/12/17 11:08:54;;;;;;;5.63;5.13;;;23.20;75.40;;;;;;6209971;28;82923;-61
2021/12/17 11:12:01;;;;;;;5.93;5.32;;;23.20;75.40;;;;;;6212562;28;82835;-61
2021/12/17 11:15:18;;;;;;;5.00;4.60;;;23.20;75.30;;;;;;6204290;28;84147;-61
2021/12/17 11:18:22;;;;;;;4.97;4.57;;;23.20;75.30;;;;;;6211350;28;83339;-61
2021/12/17 11:21:24;;;;;;;5.60;5.10;;;23.20;75.30;;;;;;6212544;28;84106;-61
2021/12/17 11:24:26;;;;;;;5.28;4.78;;;23.20;75.30;;;;;;6208296;28;83120;-61
2021/12/17 11:27:30;;;;;;;5.30;4.80;;;23.20;75.30;;;;;;6201277;28;84953;-61
2021/12/17 11:30:34;;;;;;;5.30;4.80;;;23.20;75.20;;;;;;6209710;28;82948;-61
2021/12/17 11:33:37;;;;;;;5.10;4.65;;;23.20;75.20;;;;;;6204574;28;83969;-61
2021/12/17 11:36:39;;;;;;;4.90;4.50;;;23.20;75.20;;;;;;6209951;28;84407;-61
2021/12/17 11:39:47;;;;;;;4.90;4.35;;;23.20;75.20;;;;;;6209876;28;83886;-61
2021/12/17 11:43:28;;;;;;;5.00;4.50;;;23.20;75.20;;;;;;6210700;28;84072;-61
2021/12/17 11:46:34;;;;;;;4.63;4.22;;;23.20;76.10;;;;;;6209187;28;84111;-60
2021/12/17 11:49:39;;;;;;;4.70;4.30;;;23.20;75.20;;;;;;6198145;28;83313;-61
2021/12/17 11:52:46;;;;;;;4.90;4.50;;;23.20;75.20;;;;;;6197153;28;83791;-61
2021/12/17 11:55:50;;;;;;;4.57;4.18;;;23.20;75.10;;;;;;6199512;28;83972;-61
2021/12/17 11:58:53;;;;;;;4.45;4.05;;;23.30;75.10;;;;;;6198622;28;84644;-62
2021/12/17 12:02:02;;;;;;;4.80;4.40;;;23.30;75.00;;;;;;6199012;28;84093;-61
2021/12/17 12:05:06;;;;;;;4.00;3.70;;;23.30;75.00;;;;;;6211531;28;84094;-61
2021/12/17 12:08:29;;;;;;;3.97;3.58;;;23.30;75.00;;;;;;6198589;28;84422;-61
2021/12/17 12:11:31;;;;;;;4.32;3.92;;;23.30;75.00;;;;;;6193474;28;84033;-61
2021/12/17 12:14:33;;;;;;;4.47;4.07;;;23.30;75.00;;;;;;6197427;28;84004;-61
2021/12/17 12:18:06;;;;;;;4.28;3.97;;;23.30;75.00;;;;;;6216636;28;84074;-61
2021/12/17 12:21:08;;;;;;;4.22;3.83;;;23.30;75.00;;;;;;6212713;28;83392;-61
2021/12/17 12:24:13;;;;;;;3.97;3.67;;;23.30;75.00;;;;;;6186856;28;84323;-61
2021/12/17 12:27:30;;;;;;;4.60;4.18;;;23.20;75.00;;;;;;6184576;28;84282;-61
2021/12/17 12:30:39;;;;;;;4.10;3.70;;;23.20;75.00;;;;;;6198217;28;85330;-61
2021/12/17 12:34:12;;;;;;;4.20;3.80;;;23.30;75.00;;;;;;6196909;28;83955;-62
2021/12/17 12:37:20;;;;;;;3.72;3.42;;;23.30;75.00;;;;;;6202146;28;84379;-61
2021/12/17 12:40:22;;;;;;;3.40;3.10;;;23.30;75.90;;;;;;6214075;28;82887;-62
2021/12/17 12:43:30;;;;;;;3.75;3.45;;;23.30;75.00;;;;;;6208767;28;84021;-62
2021/12/17 12:46:53;;;;;;;3.70;3.40;;;23.20;74.90;;;;;;6195961;28;83992;-62
2021/12/17 12:50:06;;;;;;;3.70;3.40;;;23.30;75.00;;;;;;6208693;28;83798;-61
2021/12/17 12:53:11;;;;;;;3.53;3.22;;;23.30;74.90;;;;;;6196816;28;83346;-62
2021/12/17 12:56:18;;;;;;;3.60;3.30;;;23.30;74.90;;;;;;6210247;28;84023;-61
2021/12/17 12:59:22;;;;;;;3.58;3.28;;;23.20;74.90;;;;;;6195559;28;83976;-62
2021/12/17 13:02:26;;;;;;;3.75;3.38;;;23.30;74.90;;;;;;6196058;28;83953;-61
2021/12/17 13:05:31;;;;;;;3.60;3.30;;;23.30;74.90;;;;;;6199853;28;83898;-62
2021/12/17 13:08:35;;;;;;;3.45;3.15;;;23.30;75.80;;;;;;6205278;28;84016;-61
2021/12/17 13:11:45;;;;;;;3.60;3.30;;;23.30;74.90;;;;;;6197299;28;84141;-62
2021/12/17 13:14:47;;;;;;;3.38;3.08;;;23.30;74.90;;;;;;6188645;28;84036;-62
2021/12/17 13:21:36;;;;;;;3.53;3.22;;;23.30;74.90;;;;;;6186380;28;81932;-61
2021/12/17 13:24:38;;;;;;;3.42;3.13;;;23.30;74.90;;;;;;6210182;28;83311;-62
2021/12/17 13:27:52;;;;;;;3.30;3.00;;;23.30;74.90;;;;;;6198120;28;84077;-62
2021/12/17 13:30:55;;;;;;;3.25;2.97;;;23.30;74.80;;;;;;6218128;28;84023;-62
2021/12/17 13:33:57;;;;;;;3.28;3.00;;;23.30;74.80;;;;;;6208651;28;85009;-62
2021/12/17 13:37:08;;;;;;;3.38;3.08;;;23.30;74.70;;;;;;6208241;28;83941;-61
2021/12/17 13:40:12;;;;;;;3.47;3.17;;;23.30;74.70;;;;;;6200345;28;84029;-62
2021/12/17 13:43:14;;;;;;;3.30;3.00;;;23.30;74.70;;;;;;6213045;28;85950;-62
2021/12/17 13:46:16;;;;;;;3.13;2.92;;;23.30;74.70;;;;;;6204331;28;84116;-62
2021/12/17 13:49:19;;;;;;;3.30;3.00;;;23.30;74.70;;;;;;6206040;28;83224;-61
2021/12/17 13:52:26;;;;;;;3.08;2.80;;;23.30;74.70;;;;;;6213511;28;82928;-61
2021/12/17 13:55:30;;;;;;;3.08;2.88;;;23.30;74.70;;;;;;6228431;28;83322;-62
2021/12/17 13:58:39;;;;;;;2.72;2.53;;;23.30;74.70;;;;;;6198071;28;84042;-62
2021/12/17 14:01:41;;;;;;;2.85;2.65;;;23.30;74.70;;;;;;6213457;28;84120;-62
2021/12/17 14:04:58;;;;;;;3.30;3.00;;;23.30;74.70;;;;;;6208909;28;83860;-62
2021/12/17 14:08:03;;;;;;;2.92;2.72;;;23.30;74.70;;;;;;6200099;28;84104;-62
2021/12/17 14:11:17;;;;;;;3.00;2.80;;;23.30;74.70;;;;;;6201397;28;85646;-61
2021/12/17 14:14:24;;;;;;;2.88;2.67;;;23.30;74.70;;;;;;6190979;28;84002;-61
2021/12/17 14:17:32;;;;;;;2.97;2.75;;;23.30;74.70;;;;;;6210587;28;82913;-62
2021/12/17 14:20:40;;;;;;;3.20;2.90;;;23.30;74.70;;;;;;6211204;28;83101;-61
2021/12/17 14:23:43;;;;;;;2.70;2.50;;;23.30;74.70;;;;;;6216088;28;84011;-61
2021/12/17 14:26:48;;;;;;;2.70;2.50;;;23.30;74.70;;;;;;6210107;28;83595;-61
2021/12/17 14:30:04;;;;;;;2.60;2.40;;;23.30;74.70;;;;;;6211803;28;83945;-61
2021/12/17 14:33:11;;;;;;;3.00;2.80;;;23.30;74.60;;;;;;6205919;28;82968;-62
2021/12/17 14:36:15;;;;;;;2.80;2.60;;;23.30;74.60;;;;;;6205230;28;85380;-61
2021/12/17 14:39:23;;;;;;;2.80;2.60;;;23.30;74.70;;;;;;6193829;28;83966;-62
2021/12/17 14:42:35;;;;;;;2.80;2.60;;;23.30;74.60;;;;;;6199885;28;84311;-61
2021/12/17 14:45:43;;;;;;;2.53;2.33;;;23.30;74.60;;;;;;6212246;28;84121;-61
2021/12/17 14:49:01;;;;;;;2.60;2.40;;;23.30;74.50;;;;;;6211734;28;84615;-62
2021/12/17 15:02:23;;;;;;;2.70;2.50;;;23.30;74.50;;;;;;6223664;28;82677;-62
2021/12/17 15:05:28;;;;;;;2.60;2.40;;;23.40;74.50;;;;;;6210735;28;83955;-62
2021/12/17 15:08:30;;;;;;;2.28;2.13;;;23.40;74.50;;;;;;6211776;28;85388;-62
2021/12/17 15:11:41;;;;;;;2.42;2.22;;;23.30;74.40;;;;;;6210884;28;84352;-61
2021/12/17 15:15:02;;;;;;;2.72;2.53;;;23.40;74.50;;;;;;6209686;28;84110;-62
2021/12/17 15:18:06;;;;;;;2.60;2.40;;;23.30;74.40;;;;;;6200039;28;84055;-62
2021/12/17 15:21:08;;;;;;;2.47;2.28;;;23.40;74.50;;;;;;6202191;28;83933;-62
2021/12/17 15:24:10;;;;;;;2.50;2.30;;;23.30;74.40;;;;;;6210935;28;84117;-61
2021/12/17 15:27:14;;;;;;;2.47;2.28;;;23.30;74.40;;;;;;6213339;28;84027;-61
2021/12/17 15:30:20;;;;;;;2.50;2.30;;;23.30;74.40;;;;;;6200944;28;82267;-61
2021/12/17 15:33:22;;;;;;;2.50;2.30;;;23.30;74.40;;;;;;6189780;28;84194;-61
2021/12/17 15:36:24;;;;;;;2.50;2.30;;;23.30;74.40;;;;;;6212149;28;84504;-62
2021/12/17 15:39:27;;;;;;;2.50;2.30;;;23.30;74.30;;;;;;6214908;28;85108;-62
2021/12/17 15:42:30;;;;;;;2.40;2.20;;;23.30;74.40;;;;;;6200140;28;84033;-61
2021/12/17 15:45:34;;;;;;;2.58;2.38;;;23.30;74.30;;;;;;6202515;28;84099;-61
2021/12/17 15:48:36;;;;;;;2.42;2.22;;;23.40;74.40;;;;;;6198245;28;84035;-62
2021/12/17 15:51:38;;;;;;;2.47;2.28;;;23.40;74.40;;;;;;6209258;28;84131;-62
2021/12/17 15:54:40;;;;;;;2.30;2.10;;;23.40;74.40;;;;;;6197918;28;83964;-61
2021/12/17 15:57:44;;;;;;;2.20;2.00;;;23.30;74.20;;;;;;6198107;28;84332;-61
2021/12/17 16:00:46;;;;;;;2.30;2.10;;;23.40;74.30;;;;;;6211547;28;83245;-61
2021/12/17 16:03:48;;;;;;;2.53;2.20;;;23.30;74.20;;;;;;6208615;28;84371;-61
2021/12/17 16:06:50;;;;;;;2.40;2.20;;;23.40;74.30;;;;;;6202760;28;82986;-62
2021/12/17 16:16:54;;;;;;;2.40;2.20;;;23.30;74.20;;;;;;6206356;28;83012;-61
2021/12/17 16:23:15;;;;;;;2.17;2.03;;;23.30;74.20;;;;;;6198441;28;83424;-61
2021/12/17 16:26:20;;;;;;;2.10;1.90;;;23.40;74.20;;;;;;6202337;28;84024;-61
2021/12/17 16:29:24;;;;;;;2.00;1.90;;;23.30;74.10;;;;;;6209948;28;82934;-62
2021/12/17 16:32:26;;;;;;;2.20;2.00;;;23.40;74.20;;;;;;6207957;28;83605;-61
2021/12/17 16:35:28;;;;;;;2.00;1.90;;;23.40;74.10;;;;;;6206471;28;83451;-61
2021/12/17 16:38:31;;;;;;;2.20;2.00;;;23.40;74.10;;;;;;6208695;28;83943;-61
2021/12/17 16:41:34;;;;;;;2.33;2.13;;;23.40;74.10;;;;;;6209905;28;85128;-61
2021/12/17 16:44:46;;;;;;;2.00;1.90;;;23.40;74.10;;;;;;6199240;28;84207;-61
2021/12/17 16:47:48;;;;;;;2.00;1.90;;;23.40;74.00;;;;;;6207378;28;84357;-61
2021/12/17 16:50:52;;;;;;;2.03;1.92;;;23.40;74.00;;;;;;6207618;28;85252;-62
2021/12/17 16:53:54;;;;;;;2.05;1.95;;;23.40;74.00;;;;;;6209456;28;84123;-62
2021/12/17 16:56:56;;;;;;;2.00;1.90;;;23.40;74.00;;;;;;6202274;28;84065;-62
2021/12/17 17:00:00;;;;;;;2.17;2.00;;;23.30;74.00;;;;;;6194522;28;89154;-62
2021/12/17 17:03:03;;;;;;;2.10;2.00;;;23.40;74.00;;;;;;6198945;28;88555;-61
2021/12/17 17:06:06;;;;;;;2.35;2.15;;;23.40;74.00;;;;;;6205488;28;89350;-61
2021/12/17 17:09:10;;;;;;;2.05;1.95;;;23.40;74.00;;;;;;6204520;28;89266;-62
2021/12/17 17:12:13;;;;;;;2.35;2.15;;;23.40;74.00;;;;;;6193303;28;90178;-61
2021/12/17 17:15:17;;;;;;;2.38;2.17;;;23.40;74.00;;;;;;6204547;28;89117;-61
2021/12/17 17:18:19;;;;;;;2.20;2.00;;;23.40;74.00;;;;;;6206240;28;89047;-61
2021/12/17 17:21:22;;;;;;;1.90;1.80;;;23.40;74.00;;;;;;6199199;28;89376;-61
2021/12/17 17:24:24;;;;;;;2.00;1.90;;;23.40;74.00;;;;;;6202345;28;88955;-61
2021/12/17 17:27:26;;;;;;;2.20;2.00;;;23.40;73.90;;;;;;6209726;28;89415;-61
2021/12/17 17:30:30;;;;;;;2.00;1.90;;;23.40;73.90;;;;;;6198574;28;87968;-61
2021/12/17 17:33:32;;;;;;;1.95;1.85;;;23.40;73.90;;;;;;6210978;28;88313;-61
2021/12/17 17:36:34;;;;;;;2.15;1.95;;;23.40;73.90;;;;;;6201981;28;88729;-61
2021/12/17 17:39:36;;;;;;;2.08;1.92;;;23.40;73.90;;;;;;6207738;28;88979;-62
2021/12/17 17:42:38;;;;;;;2.05;1.95;;;23.40;73.80;;;;;;6208306;28;90307;-61
2021/12/17 17:45:42;;;;;;;2.08;1.92;;;23.40;74.00;;;;;;6210020;28;89935;-61
2021/12/17 17:48:44;;;;;;;1.90;1.80;;;23.40;74.00;;;;;;6222661;28;89228;-61
2021/12/17 17:51:47;;;;;;;2.20;2.00;;;23.40;73.90;;;;;;6208335;28;89045;-61
2021/12/17 17:54:50;;;;;;;1.90;1.80;;;23.40;73.80;;;;;;6211585;28;88476;-61
2021/12/17 17:57:52;;;;;;;1.80;1.70;;;23.40;73.90;;;;;;6210917;28;89182;-61
2021/12/17 18:00:55;;;;;;;1.83;1.73;;;23.40;73.80;;;;;;6220084;28;89059;-61
2021/12/17 18:03:57;;;;;;;1.77;1.67;;;23.40;73.80;;;;;;6198341;28;87540;-61
2021/12/17 18:06:59;;;;;;;2.10;2.00;;;23.40;73.80;;;;;;6208666;28;89171;-61
2021/12/17 18:10:01;;;;;;;2.20;2.00;;;23.40;73.80;;;;;;6203297;28;89093;-61
2021/12/17 18:13:05;;;;;;;2.17;1.98;;;23.40;73.80;;;;;;6202690;28;90086;-61
2021/12/17 18:16:08;;;;;;;1.90;1.80;;;23.40;73.80;;;;;;6208934;28;89099;-61
2021/12/17 18:19:10;;;;;;;1.98;1.88;;;23.40;73.80;;;;;;6221257;28;89057;-61
2021/12/17 18:22:12;;;;;;;1.80;1.70;;;23.40;73.80;;;;;;6210672;28;89382;-61
2021/12/17 18:25:15;;;;;;;2.00;1.80;;;23.50;73.80;;;;;;6209170;28;89292;-61
2021/12/17 18:28:18;;;;;;;1.80;1.70;;;23.40;73.80;;;;;;6202001;28;89356;-61
2021/12/17 18:31:22;;;;;;;2.03;1.90;;;23.50;73.80;;;;;;6203538;28;89033;-62